Time;durP1;ratioP1;P1;durP2;ratioP2;P2;SDS_P1;SDS_P2;PMS_P1;PMS_P2;Temp;Humidity;BMP_temperature;BMP_pressure;BME280_temperature;BME280_humidity;BME280_pressure;Samples;Min_cycle;Max_cycle;Signal;HPM_P1;HPM_P2
2022/01/25 00:26:19;;;;;;;6.73;2.93;;;;;;;-16.86;69.89;97255.80;1690065;85;21383;-72
2022/01/25 00:31:10;;;;;;;5.50;3.00;;;;;;;-16.82;68.98;97255.05;1690495;85;21272;-73
2022/01/25 00:33:34;;;;;;;8.27;3.47;;;;;;;-16.92;69.13;97261.08;1689399;85;21804;-73
2022/01/25 00:36:04;;;;;;;5.90;3.50;;;;;;;-16.99;68.99;97269.95;1690039;85;21219;-74
2022/01/25 00:38:31;;;;;;;6.50;3.33;;;;;;;-16.96;69.45;97257.66;1690278;85;21315;-74
2022/01/25 00:40:57;;;;;;;8.77;4.67;;;;;;;-16.91;69.10;97258.18;1690257;85;21792;-73
2022/01/25 00:43:26;;;;;;;5.37;2.37;;;;;;;-16.87;69.44;97256.55;1693067;84;21348;-73
2022/01/25 00:45:58;;;;;;;8.17;3.83;;;;;;;-16.96;68.69;97256.77;1705296;84;21223;-73
2022/01/25 00:56:21;;;;;;;7.07;2.37;;;;;;;-17.14;69.42;97253.09;1704828;84;21131;-73
2022/01/25 00:58:48;;;;;;;6.87;3.70;;;;;;;-17.16;70.18;97255.81;1705200;84;21171;-73
2022/01/25 01:01:14;;;;;;;4.90;3.00;;;;;;;-17.17;69.98;97257.44;1705304;84;21824;-73
2022/01/25 01:03:41;;;;;;;6.93;2.37;;;;;;;-17.14;69.90;97259.04;1705096;84;21213;-73
2022/01/25 01:06:07;;;;;;;4.87;1.97;;;;;;;-17.10;69.26;97252.73;1705164;84;21324;-73
2022/01/25 01:08:34;;;;;;;7.23;2.57;;;;;;;-17.21;69.07;97248.09;1705299;84;21254;-73
2022/01/25 01:11:04;;;;;;;7.73;1.70;;;;;;;-17.29;69.07;97245.59;1705147;84;21790;-73
2022/01/25 01:13:52;;;;;;;3.30;1.80;;;;;;;-17.30;69.10;97246.70;1705206;84;21286;-73
2022/01/25 01:16:30;;;;;;;7.33;4.20;;;;;;;-17.20;69.22;97248.64;1698608;84;21831;-73
2022/01/25 01:29:45;;;;;;;7.43;3.80;;;;;;;-17.45;69.37;97224.06;1705569;84;21223;-73
2022/01/25 01:34:50;;;;;;;16.13;7.67;;;;;;;-17.36;69.46;97223.30;1705102;84;21370;-73
2022/01/25 01:47:42;;;;;;;22.77;8.07;;;;;;;-17.77;68.81;97220.80;1690098;85;21212;-73
2022/01/25 01:50:11;;;;;;;19.67;8.83;;;;;;;-17.90;68.74;97218.54;1688933;85;21844;-73
2022/01/25 01:52:35;;;;;;;3.60;1.93;;;;;;;-17.88;69.47;97221.25;1689719;85;21268;-73
2022/01/25 01:55:04;;;;;;;4.47;1.70;;;;;;;-17.71;69.98;97213.91;1690174;85;21311;-74
2022/01/25 01:57:31;;;;;;;5.10;1.97;;;;;;;-17.54;69.96;97225.55;1690331;85;21197;-73
2022/01/25 01:59:58;;;;;;;0.63;0.63;;;;;;;-17.49;69.56;97214.72;1690143;84;21326;-73
2022/01/25 02:02:25;;;;;;;8.27;3.43;;;;;;;-17.45;69.43;97217.77;1690270;85;21267;-73
2022/01/25 02:04:52;;;;;;;13.90;5.70;;;;;;;-17.48;68.93;97212.75;1689926;85;21325;-73
2022/01/25 02:07:18;;;;;;;33.03;14.97;;;;;;;-17.65;68.81;97214.62;1690129;85;21323;-73
2022/01/25 02:09:45;;;;;;;48.57;19.43;;;;;;;-17.87;69.18;97216.73;1690249;85;21311;-73
2022/01/25 02:12:11;;;;;;;37.63;16.30;;;;;;;-17.90;68.84;97211.87;1690372;84;21719;-73
2022/01/25 02:14:40;;;;;;;20.13;10.13;;;;;;;-17.86;68.44;97210.95;1677241;85;21325;-73
2022/01/25 02:17:14;;;;;;;14.53;5.20;;;;;;;-17.94;68.42;97212.59;1677622;85;21261;-73
2022/01/25 02:22:31;;;;;;;13.07;5.23;;;;;;;-17.90;68.70;97198.38;1677368;85;21219;-73
2022/01/25 02:24:52;;;;;;;13.93;6.93;;;;;;;-17.91;69.24;97200.01;1660844;86;21325;-73
2022/01/25 02:27:18;;;;;;;25.27;10.63;;;;;;;-17.81;69.08;97205.73;1690835;84;21286;-73
2022/01/25 02:29:45;;;;;;;37.93;14.13;;;;;;;-17.87;68.27;97201.23;1690669;85;21294;-73
2022/01/25 02:32:13;;;;;;;11.70;5.30;;;;;;;-17.85;69.53;97196.02;1691107;85;21323;-73
2022/01/25 02:34:40;;;;;;;5.00;2.63;;;;;;;-17.86;68.75;97200.53;1690669;84;21309;-73
2022/01/25 02:37:13;;;;;;;13.03;5.67;;;;;;;-17.92;69.15;97194.41;1691345;84;21223;-73
2022/01/25 02:39:42;;;;;;;22.80;10.03;;;;;;;-17.98;69.42;97188.69;1690731;84;21364;-73
2022/01/25 02:42:12;;;;;;;63.50;25.20;;;;;;;-18.20;68.95;97199.55;1690995;85;21119;-73
2022/01/25 02:44:41;;;;;;;56.63;21.27;;;;;;;-18.24;69.61;97196.13;1690235;84;21353;-74
2022/01/25 02:49:55;;;;;;;56.70;21.83;;;;;;;-18.28;69.93;97191.48;1677255;85;21321;-74
2022/01/25 02:52:22;;;;;;;62.73;27.40;;;;;;;-18.21;69.88;97192.36;1677376;85;21359;-73
2022/01/25 02:54:49;;;;;;;61.97;23.57;;;;;;;-18.08;69.04;97188.36;1677389;85;21312;-73
2022/01/25 02:57:17;;;;;;;65.97;27.27;;;;;;;-18.08;68.46;97188.36;1677036;85;21296;-73
2022/01/25 02:59:44;;;;;;;59.70;24.10;;;;;;;-18.18;68.06;97195.23;1690241;84;21177;-73
2022/01/25 03:02:11;;;;;;;48.97;20.87;;;;;;;-18.09;68.04;97191.95;1690266;85;21331;-73
2022/01/25 03:04:38;;;;;;;5.83;2.87;;;;;;;-18.07;67.61;97200.59;1690035;85;21105;-73
2022/01/25 03:07:06;;;;;;;5.93;2.03;;;;;;;-18.05;68.10;97189.97;1690185;85;21217;-73
2022/01/25 03:09:32;;;;;;;36.40;16.10;;;;;;;-18.11;68.85;97195.58;1690109;84;21249;-73
2022/01/25 03:12:01;;;;;;;42.97;17.83;;;;;;;-18.16;68.54;97202.97;1690268;85;21765;-73
2022/01/25 03:14:31;;;;;;;6.53;2.47;;;;;;;-18.07;68.71;97199.33;1677359;85;21307;-73
2022/01/25 03:19:44;;;;;;;4.43;1.60;;;;;;;-18.08;68.55;97193.77;1677354;85;21283;-73
2022/01/25 03:21:58;;;;;;;4.63;1.73;;;;;;;-17.96;69.00;97197.69;1657950;86;21288;-73
2022/01/25 03:24:25;;;;;;;18.10;7.87;;;;;;;-17.86;69.32;97189.52;1677229;85;21252;-73
2022/01/25 03:26:52;;;;;;;33.73;14.13;;;;;;;-17.94;67.85;97197.48;1662533;86;21323;-73
2022/01/25 03:29:19;;;;;;;58.23;21.03;;;;;;;-18.20;67.12;97192.89;1677415;85;21239;-73
2022/01/25 03:31:45;;;;;;;39.33;17.30;;;;;;;-18.19;67.89;97196.30;1689851;84;21344;-73
2022/01/25 03:34:12;;;;;;;11.77;5.37;;;;;;;-18.21;67.49;97187.70;1690169;85;21292;-73
2022/01/25 03:36:39;;;;;;;2.67;1.63;;;;;;;-18.04;68.31;97182.93;1690049;85;21279;-73
2022/01/25 03:39:06;;;;;;;5.60;2.10;;;;;;;-17.99;68.37;97178.08;1690093;85;21095;-73
2022/01/25 03:41:35;;;;;;;38.37;13.63;;;;;;;-17.94;68.57;97180.77;1690247;85;21297;-73
2022/01/25 03:44:03;;;;;;;43.23;15.83;;;;;;;-18.13;68.21;97181.53;1690741;84;21344;-73
2022/01/25 03:46:41;;;;;;;43.63;17.17;;;;;;;-18.14;66.86;97174.71;1705043;84;21346;-72
2022/01/25 03:51:51;;;;;;;50.23;18.57;;;;;;;-18.27;66.19;97170.59;1704625;84;21681;-73
2022/01/25 03:54:18;;;;;;;37.93;14.83;;;;;;;-18.24;66.66;97170.94;1705178;84;21313;-73
2022/01/25 03:56:46;;;;;;;55.97;23.57;;;;;;;-18.28;66.58;97163.78;1705217;84;21339;-73
2022/01/25 03:59:13;;;;;;;12.00;4.60;;;;;;;-18.21;67.02;97163.77;1705037;84;21771;-73
2022/01/25 04:01:40;;;;;;;13.40;5.17;;;;;;;-18.07;68.02;97159.91;1704989;84;21392;-73
2022/01/25 04:04:12;;;;;;;23.73;9.80;;;;;;;-17.94;68.60;97161.86;1705427;84;21220;-73
2022/01/25 04:06:38;;;;;;;27.67;10.60;;;;;;;-17.90;68.58;97164.35;1704500;84;21346;-73
2022/01/25 04:09:08;;;;;;;22.97;10.90;;;;;;;-18.02;66.99;97165.48;1677082;84;21736;-73
2022/01/25 04:11:36;;;;;;;16.90;7.93;;;;;;;-18.13;66.18;97162.64;1677426;84;21275;-73
2022/01/25 04:14:05;;;;;;;7.73;3.50;;;;;;;-18.18;67.07;97159.96;1705023;84;21134;-73
2022/01/25 04:16:37;;;;;;;3.50;1.27;;;;;;;-18.21;67.60;97148.65;1705140;84;21195;-73
2022/01/25 04:19:10;;;;;;;22.30;9.60;;;;;;;-18.07;69.51;97147.68;1704810;84;21234;-73
2022/01/25 04:26:49;;;;;;;24.53;9.50;;;;;;;-18.04;67.03;97144.24;1705156;84;21395;-73
2022/01/25 04:29:16;;;;;;;28.70;11.97;;;;;;;-18.07;67.72;97146.05;1705016;84;21324;-73
2022/01/25 04:31:43;;;;;;;33.07;11.20;;;;;;;-18.15;68.10;97151.85;1705397;84;21276;-73
2022/01/25 04:53:17;;;;;;;31.23;12.77;;;;;;;-18.28;67.85;97143.63;1690299;85;21188;-73
2022/01/25 04:55:51;;;;;;;27.30;12.43;;;;;;;-18.23;67.43;97137.13;1688844;85;21285;-73
2022/01/25 04:58:19;;;;;;;29.17;13.57;;;;;;;-18.22;67.98;97141.80;1688974;85;21254;-73
2022/01/25 05:00:40;;;;;;;20.27;8.57;;;;;;;-18.27;67.71;97136.23;1689156;85;21347;-73
2022/01/25 05:03:12;;;;;;;28.63;12.63;;;;;;;-18.20;68.57;97134.05;1690288;85;21333;-73
2022/01/25 05:05:53;;;;;;;46.10;17.63;;;;;;;-18.18;68.68;97140.17;1689782;85;21799;-74
2022/01/25 05:11:02;;;;;;;25.10;11.97;;;;;;;-18.29;67.20;97144.33;1677016;85;21363;-73
2022/01/25 05:16:03;;;;;;;68.07;22.43;;;;;;;-18.26;68.71;97134.63;1690245;84;21189;-73
2022/01/25 05:18:24;;;;;;;81.53;30.17;;;;;;;-18.20;70.36;97125.23;1674708;85;21254;-74
2022/01/25 05:23:30;;;;;;;63.33;23.67;;;;;;;-18.40;69.69;97125.12;1677504;85;21205;-73
2022/01/25 05:25:57;;;;;;;77.60;25.60;;;;;;;-18.24;69.60;97122.75;1677400;85;21288;-73
2022/01/25 05:28:23;;;;;;;73.97;27.90;;;;;;;-18.17;68.77;97118.02;1690029;84;21366;-74
2022/01/25 05:30:50;;;;;;;60.23;21.63;;;;;;;-18.09;68.71;97121.04;1690245;85;21289;-74
2022/01/25 05:33:17;;;;;;;47.03;20.07;;;;;;;-17.95;68.37;97114.69;1677596;85;21251;-74
2022/01/25 05:35:44;;;;;;;62.40;23.33;;;;;;;-17.97;68.57;97115.23;1677278;85;21247;-74
2022/01/25 05:38:10;;;;;;;55.00;24.07;;;;;;;-17.89;68.62;97116.98;1677578;85;21429;-74
2022/01/25 05:40:44;;;;;;;63.00;22.03;;;;;;;-18.00;67.65;97107.34;1690370;85;21075;-74
2022/01/25 05:48:24;;;;;;;82.13;27.90;;;;;;;-18.47;67.25;97105.36;1705086;84;21359;-74
2022/01/25 05:50:52;;;;;;;39.80;15.97;;;;;;;-18.45;67.95;97108.95;1704273;84;21255;-74
2022/01/25 05:53:19;;;;;;;26.50;9.97;;;;;;;-18.24;68.92;97104.20;1705211;84;21194;-73
2022/01/25 05:55:46;;;;;;;41.27;15.70;;;;;;;-18.17;69.72;97107.58;1705433;84;21272;-74
2022/01/25 05:58:13;;;;;;;53.07;21.67;;;;;;;-17.98;69.63;97097.08;1705163;84;21569;-74
2022/01/25 06:00:40;;;;;;;11.53;5.07;;;;;;;-17.84;69.11;97101.12;1706714;84;21277;-74
2022/01/25 06:03:07;;;;;;;10.50;4.30;;;;;;;-17.86;68.41;97099.72;1676913;86;21323;-74
2022/01/25 06:05:35;;;;;;;81.37;35.03;;;;;;;-17.73;69.23;97091.49;1706124;84;21772;-74
2022/01/25 06:08:03;;;;;;;200.13;61.87;;;;;;;-17.62;68.47;97090.52;1704214;84;21305;-73
2022/01/25 06:10:31;;;;;;;114.33;44.80;;;;;;;-17.60;67.56;97090.33;1705548;84;21864;-76
2022/01/25 06:12:58;;;;;;;142.47;49.30;;;;;;;-17.73;66.85;97090.23;1703962;84;21339;-72
2022/01/25 06:15:25;;;;;;;118.53;42.67;;;;;;;-17.72;67.49;97088.23;1702211;84;21352;-72
2022/01/25 06:17:52;;;;;;;117.93;41.23;;;;;;;-17.64;67.55;97081.88;1703783;84;21228;-70
2022/01/25 06:20:19;;;;;;;161.37;54.60;;;;;;;-17.71;66.39;97084.08;1702470;84;21336;-71
2022/01/25 06:22:46;;;;;;;107.80;37.13;;;;;;;-17.87;67.26;97079.00;1702651;84;21653;-69
2022/01/25 06:25:13;;;;;;;121.43;43.93;;;;;;;-17.81;68.62;97074.66;1703443;84;21272;-70
2022/01/25 06:27:43;;;;;;;98.20;36.73;;;;;;;-17.81;67.88;97077.18;1703408;84;21257;-70
2022/01/25 06:30:14;;;;;;;106.07;39.97;;;;;;;-17.78;67.69;97056.05;1702217;84;21270;-71
2022/01/25 06:32:41;;;;;;;116.33;41.03;;;;;;;-17.76;68.39;97061.24;1704758;84;21147;-70
2022/01/25 06:35:09;;;;;;;164.43;55.37;;;;;;;-17.66;68.33;97056.52;1704715;84;21287;-72
2022/01/25 06:37:36;;;;;;;137.13;51.87;;;;;;;-17.61;67.71;97056.66;1705094;84;21360;-73
2022/01/25 06:40:06;;;;;;;191.70;64.93;;;;;;;-17.45;67.64;97047.52;1704781;84;21228;-71
2022/01/25 06:42:34;;;;;;;330.53;108.70;;;;;;;-17.45;66.43;97052.94;1705010;84;21215;-70
2022/01/25 06:45:02;;;;;;;238.00;84.27;;;;;;;-17.51;66.70;97052.23;1703748;84;21266;-73
2022/01/25 06:47:29;;;;;;;307.27;96.67;;;;;;;-17.47;67.79;97055.27;1703468;84;21413;-73
2022/01/25 06:49:57;;;;;;;190.97;63.03;;;;;;;-17.32;68.96;97051.02;1704444;84;21210;-78
2022/01/25 06:52:24;;;;;;;142.67;51.93;;;;;;;-17.09;68.21;97054.77;1704584;84;21279;-74
2022/01/25 06:54:50;;;;;;;171.63;62.43;;;;;;;-16.95;67.27;97044.92;1706015;84;21263;-74
2022/01/25 06:57:18;;;;;;;237.30;74.27;;;;;;;-16.85;67.63;97039.23;1704333;84;21215;-75
2022/01/25 06:59:44;;;;;;;103.73;38.63;;;;;;;-16.72;69.35;97051.13;1705100;84;21362;-71
2022/01/25 07:02:13;;;;;;;144.47;52.40;;;;;;;-16.57;68.39;97046.83;1703458;84;21460;-73
2022/01/25 07:04:39;;;;;;;112.17;43.40;;;;;;;-16.34;69.09;97040.41;1704251;84;21352;-77
2022/01/25 07:07:06;;;;;;;114.30;44.23;;;;;;;-16.04;69.43;97039.32;1704954;84;21780;-73
2022/01/25 07:09:32;;;;;;;101.37;34.17;;;;;;;-15.61;70.14;97033.23;1705128;84;21213;-74
2022/01/25 07:12:00;;;;;;;74.30;28.23;;;;;;;-15.20;69.84;97027.70;1704748;84;21438;-71
2022/01/25 07:14:26;;;;;;;89.67;36.87;;;;;;;-14.89;70.25;97022.83;1705117;84;21449;-71
2022/01/25 07:16:54;;;;;;;74.63;32.90;;;;;;;-14.58;70.21;97023.34;1705162;84;21475;-71
2022/01/25 07:19:21;;;;;;;73.43;32.63;;;;;;;-14.44;68.76;97029.72;1705087;84;21523;-69
2022/01/25 07:21:47;;;;;;;88.43;35.67;;;;;;;-14.30;68.38;97022.22;1704802;84;21537;-72
2022/01/25 07:24:14;;;;;;;103.13;42.63;;;;;;;-14.09;69.40;97016.68;1703773;84;21465;-71
2022/01/25 07:26:41;;;;;;;95.87;42.73;;;;;;;-13.76;68.53;97022.87;1703679;84;22324;-72
2022/01/25 07:29:07;;;;;;;70.63;34.63;;;;;;;-13.61;67.39;97003.11;1702672;84;21782;-70
2022/01/25 07:31:34;;;;;;;46.30;23.97;;;;;;;-13.61;67.39;96965.03;1701945;84;21540;-74
2022/01/25 07:34:01;;;;;;;43.67;19.97;;;;;;;-13.41;67.52;96999.03;1702783;84;21800;-73
2022/01/25 07:36:27;;;;;;;62.03;29.93;;;;;;;-13.30;67.43;97003.48;1702884;84;21707;-72
2022/01/25 07:38:54;;;;;;;53.57;24.67;;;;;;;-13.12;66.67;97002.62;1702728;84;21815;-75
2022/01/25 07:41:21;;;;;;;65.43;28.53;;;;;;;-13.03;66.38;97000.41;1703237;84;21733;-73
2022/01/25 07:43:48;;;;;;;70.20;34.03;;;;;;;-12.94;66.62;97001.28;1702315;84;21776;-72
2022/01/25 07:46:16;;;;;;;82.87;38.03;;;;;;;-12.86;67.46;96991.05;1702772;84;21813;-75
2022/01/25 07:48:43;;;;;;;58.37;26.57;;;;;;;-12.60;67.53;96993.81;1702077;84;21721;-77
2022/01/25 07:51:10;;;;;;;62.07;28.77;;;;;;;-12.37;67.42;96990.84;1702014;84;22086;-74
2022/01/25 07:53:38;;;;;;;59.40;26.80;;;;;;;-12.16;66.06;96988.05;1703510;84;21799;-72
2022/01/25 07:56:05;;;;;;;63.13;29.80;;;;;;;-12.06;66.16;96983.02;1702297;84;22328;-74
2022/01/25 07:58:31;;;;;;;67.93;28.83;;;;;;;-11.79;66.19;96988.37;1703382;84;21097;-71
2022/01/25 08:00:59;;;;;;;64.70;28.93;;;;;;;-11.59;65.55;96978.66;1702718;84;21803;-71
2022/01/25 08:03:26;;;;;;;51.90;25.23;;;;;;;-11.09;64.85;96968.48;1703572;84;21093;-70
2022/01/25 08:05:52;;;;;;;54.17;26.60;;;;;;;-11.09;64.85;96927.70;1704426;84;21073;-69
2022/01/25 08:08:19;;;;;;;49.13;22.57;;;;;;;-10.93;63.86;96955.41;1705586;84;21084;-69
2022/01/25 08:10:45;;;;;;;47.33;22.73;;;;;;;-10.84;63.31;96961.26;1703998;84;21080;-70
2022/01/25 08:13:12;;;;;;;71.90;32.30;;;;;;;-10.70;63.85;96958.22;1704844;84;21062;-69
2022/01/25 08:15:38;;;;;;;82.23;36.00;;;;;;;-10.57;63.36;96960.13;1704027;84;22212;-72
2022/01/25 08:18:05;;;;;;;98.67;44.40;;;;;;;-10.50;63.82;96956.05;1704133;84;21089;-73
2022/01/25 08:20:32;;;;;;;101.17;46.43;;;;;;;-10.32;63.06;96954.13;1705116;84;21034;-69
2022/01/25 08:22:59;;;;;;;97.40;43.27;;;;;;;-10.28;62.83;96951.42;1705111;84;21124;-70
2022/01/25 08:25:26;;;;;;;110.97;50.67;;;;;;;-10.22;63.23;96944.65;1703187;84;21065;-71
2022/01/25 08:27:53;;;;;;;116.67;51.77;;;;;;;-10.16;63.62;96946.41;1704228;84;22191;-71
2022/01/25 08:30:19;;;;;;;73.20;34.63;;;;;;;-10.12;64.03;96941.69;1704924;84;21098;-72
2022/01/25 08:32:46;;;;;;;106.00;48.70;;;;;;;-9.84;63.79;96928.59;1703327;84;21121;-71
2022/01/25 08:35:13;;;;;;;211.80;92.23;;;;;;;-9.60;63.13;96928.00;1707262;84;21428;-69
2022/01/25 08:37:39;;;;;;;77.77;35.63;;;;;;;-9.38;62.54;96924.17;1708510;84;21152;-69
2022/01/25 08:40:08;;;;;;;86.37;40.67;;;;;;;-9.15;61.82;96914.48;1708284;84;21100;-68
2022/01/25 08:42:35;;;;;;;76.17;36.63;;;;;;;-8.95;62.78;96908.71;1709890;84;21085;-71
2022/01/25 08:45:06;;;;;;;82.53;39.17;;;;;;;-8.87;62.18;96903.78;1690859;84;21014;-69
2022/01/25 08:47:32;;;;;;;89.47;41.27;;;;;;;-8.77;61.65;96899.91;1699116;84;21097;-68
2022/01/25 08:49:59;;;;;;;83.07;40.67;;;;;;;-8.56;61.99;96899.34;1695370;85;20998;-71
2022/01/25 08:52:27;;;;;;;106.17;53.13;;;;;;;-8.45;61.81;96897.97;1694862;85;21552;-70
2022/01/25 08:54:54;;;;;;;93.47;44.50;;;;;;;-8.33;62.37;96886.05;1689389;85;21114;-70
2022/01/25 08:57:21;;;;;;;96.83;45.67;;;;;;;-8.33;62.57;96889.89;1686581;84;21624;-72
2022/01/25 08:59:47;;;;;;;90.47;42.83;;;;;;;-8.23;62.95;96886.34;1686109;85;21035;-72
2022/01/25 09:02:14;;;;;;;89.23;44.40;;;;;;;-8.11;63.06;96883.00;1685845;84;21122;-72
2022/01/25 09:04:41;;;;;;;93.90;45.97;;;;;;;-8.13;63.19;96881.11;1686218;85;21577;-68
2022/01/25 09:07:07;;;;;;;85.40;44.50;;;;;;;-7.99;63.42;96883.37;1657499;85;21587;-69
2022/01/25 09:09:34;;;;;;;78.10;39.10;;;;;;;-7.92;62.92;96885.22;1686534;84;21351;-72
2022/01/25 09:12:02;;;;;;;77.47;37.20;;;;;;;-7.84;63.36;96870.39;1686651;85;21114;-71
2022/01/25 09:14:28;;;;;;;83.97;39.33;;;;;;;-7.67;63.38;96872.89;1687108;84;21034;-72
2022/01/25 09:16:55;;;;;;;62.40;30.20;;;;;;;-7.48;63.17;96875.10;1686434;84;21097;-70
2022/01/25 09:19:21;;;;;;;72.30;37.53;;;;;;;-7.42;63.80;96868.71;1686850;84;21023;-67
2022/01/25 09:21:48;;;;;;;57.33;29.90;;;;;;;-7.28;63.36;96865.84;1686738;85;21059;-71
2022/01/25 09:24:14;;;;;;;77.40;35.60;;;;;;;-6.98;62.98;96864.88;1686325;84;21712;-71
2022/01/25 09:26:41;;;;;;;73.10;33.83;;;;;;;-6.64;61.28;96857.80;1686989;85;21153;-71
2022/01/25 09:29:08;;;;;;;81.97;35.83;;;;;;;-6.41;59.90;96860.61;1686147;85;21137;-67
2022/01/25 09:31:35;;;;;;;44.87;21.50;;;;;;;-6.38;59.20;96856.08;1687228;85;21046;-69
2022/01/25 09:34:01;;;;;;;36.63;17.87;;;;;;;-6.29;60.08;96855.41;1687311;85;21035;-70
2022/01/25 09:36:29;;;;;;;22.93;9.80;;;;;;;-6.05;60.91;96857.39;1687155;84;21042;-70
2022/01/25 09:38:56;;;;;;;24.17;12.40;;;;;;;-6.00;61.74;96851.27;1687070;84;21105;-71
2022/01/25 09:41:24;;;;;;;19.90;9.47;;;;;;;-5.79;61.64;96859.46;1686776;84;21071;-75
2022/01/25 09:43:51;;;;;;;22.27;11.17;;;;;;;-5.56;58.49;96848.06;1686499;84;21066;-80
2022/01/25 09:46:18;;;;;;;20.30;10.17;;;;;;;-5.34;57.54;96855.41;1688853;84;21023;-76
2022/01/25 09:48:44;;;;;;;19.07;9.27;;;;;;;-5.10;57.51;96851.80;1714692;84;21001;-73
2022/01/25 09:51:12;;;;;;;20.90;10.10;;;;;;;-5.00;55.80;96850.67;1715388;84;21033;-76
2022/01/25 09:53:39;;;;;;;19.23;9.40;;;;;;;-4.94;55.47;96848.45;1686306;85;21556;-75
2022/01/25 09:56:08;;;;;;;21.67;9.50;;;;;;;-4.79;55.01;96846.84;1714502;84;21045;-80
2022/01/25 09:58:36;;;;;;;22.10;10.90;;;;;;;-4.74;54.27;96852.64;1710909;84;21563;-75
2022/01/25 10:01:05;;;;;;;24.03;11.33;;;;;;;-4.63;54.29;96849.05;1711023;84;21120;-78
2022/01/25 10:03:37;;;;;;;24.17;11.77;;;;;;;-4.57;53.94;96848.11;1710525;83;21110;-76
2022/01/25 10:06:06;;;;;;;20.00;10.83;;;;;;;-4.59;53.26;96848.41;1696235;84;21157;-75
2022/01/25 10:08:36;;;;;;;23.53;12.10;;;;;;;-4.54;53.40;96840.95;1683128;85;21106;-75
2022/01/25 10:11:07;;;;;;;23.83;11.33;;;;;;;-4.55;53.65;96841.36;1714622;84;21167;-75
2022/01/25 10:13:51;;;;;;;26.77;13.30;;;;;;;-4.41;53.67;96825.05;1684844;85;21027;-76
2022/01/25 10:16:24;;;;;;;26.27;13.27;;;;;;;-4.45;52.56;96825.65;1714313;84;21639;-75
2022/01/25 10:18:56;;;;;;;27.63;15.20;;;;;;;-4.37;53.17;96814.50;1684362;85;21520;-76
2022/01/25 10:21:31;;;;;;;30.93;16.77;;;;;;;-4.31;52.90;96816.13;1715540;84;21032;-74
2022/01/25 10:24:14;;;;;;;29.77;15.17;;;;;;;-4.23;53.31;96804.59;1712198;84;21065;-76
2022/01/25 10:26:51;;;;;;;30.97;15.95;;;;;;;-4.20;53.22;96802.19;1716297;84;21066;-75
2022/01/25 10:29:34;;;;;;;32.73;16.40;;;;;;;-4.26;53.38;96797.98;1686917;85;21053;-75
2022/01/25 10:32:09;;;;;;;28.45;14.60;;;;;;;-4.15;53.57;96801.17;1714180;84;21545;-75
2022/01/25 10:34:45;;;;;;;30.20;16.97;;;;;;;-4.18;53.28;96789.00;1711541;84;21041;-76
2022/01/25 10:37:18;;;;;;;28.53;15.90;;;;;;;-4.19;53.90;96796.62;1711617;84;21033;-75
2022/01/25 10:39:48;;;;;;;30.27;15.53;;;;;;;-4.16;53.75;96789.06;1711290;84;20997;-75
2022/01/25 10:42:29;;;;;;;29.87;16.17;;;;;;;-4.00;54.05;96793.02;1711955;84;21061;-75
2022/01/25 10:45:09;;;;;;;31.50;15.10;;;;;;;-3.90;53.95;96788.38;1711602;84;21548;-76
2022/01/25 10:47:48;;;;;;;37.73;18.33;;;;;;;-3.88;53.81;96782.88;1711491;84;21088;-75
2022/01/25 10:50:27;;;;;;;37.43;16.73;;;;;;;-3.78;54.13;96785.17;1711254;84;21086;-76
2022/01/25 10:53:15;;;;;;;53.03;23.90;;;;;;;-3.77;53.81;96777.94;1711160;84;21097;-75
2022/01/25 10:55:53;;;;;;;39.27;16.20;;;;;;;-3.60;53.95;96782.74;1711507;84;20966;-75
2022/01/25 10:58:21;;;;;;;32.37;17.67;;;;;;;-3.57;53.43;96777.74;1711568;84;21005;-75
2022/01/25 11:00:51;;;;;;;25.40;13.30;;;;;;;-3.36;53.43;96781.47;1711748;84;21100;-75
2022/01/25 11:03:32;;;;;;;28.27;14.47;;;;;;;-3.22;53.34;96771.02;1711407;84;21034;-75
2022/01/25 11:06:14;;;;;;;29.93;16.17;;;;;;;-3.16;53.12;96760.59;1709902;84;20987;-76
2022/01/25 11:08:44;;;;;;;17.60;9.30;;;;;;;-3.10;53.52;96757.44;1711338;84;21004;-75
2022/01/25 11:11:29;;;;;;;22.17;12.30;;;;;;;-3.17;53.00;96751.49;1711497;84;21029;-75
2022/01/25 11:14:00;;;;;;;17.00;9.10;;;;;;;-3.13;53.45;96749.54;1711463;84;21036;-75
2022/01/25 11:16:24;;;;;;;19.50;9.57;;;;;;;-3.03;52.84;96747.03;1711195;84;21049;-75
2022/01/25 11:18:51;;;;;;;13.93;5.77;;;;;;;-2.90;52.96;96753.31;1711746;84;21037;-75
2022/01/25 11:21:20;;;;;;;17.57;9.20;;;;;;;-2.81;52.85;96748.63;1711188;84;21149;-75
2022/01/25 11:23:47;;;;;;;8.57;5.33;;;;;;;-2.79;52.15;96740.56;1711404;84;21002;-75
2022/01/25 11:26:15;;;;;;;9.37;5.20;;;;;;;-2.77;51.93;96737.66;1711470;84;21052;-75
2022/01/25 11:28:45;;;;;;;11.57;6.13;;;;;;;-2.82;50.77;96733.95;1711399;84;21488;-75
2022/01/25 11:31:17;;;;;;;13.03;6.40;;;;;;;-2.86;51.50;96732.89;1711862;84;21041;-75
2022/01/25 11:33:47;;;;;;;11.00;6.42;;;;;;;-2.81;50.84;96730.55;1711862;84;21021;-75
2022/01/25 11:36:15;;;;;;;15.53;7.23;;;;;;;-2.67;50.93;96729.56;1711395;84;21013;-75
2022/01/25 11:38:48;;;;;;;10.63;6.17;;;;;;;-2.50;51.77;96723.92;1711315;84;21552;-75
2022/01/25 11:41:18;;;;;;;10.03;5.75;;;;;;;-2.46;51.13;96716.81;1711634;84;21044;-75
2022/01/25 11:44:05;;;;;;;10.50;5.33;;;;;;;-2.40;50.79;96714.52;1711541;84;21013;-75
2022/01/25 11:46:32;;;;;;;8.47;4.73;;;;;;;-2.62;49.75;96719.46;1690291;84;20966;-75
2022/01/25 11:49:06;;;;;;;14.50;6.40;;;;;;;-2.52;50.32;96713.94;1711405;84;21495;-75
2022/01/25 11:51:34;;;;;;;10.60;4.27;;;;;;;-2.53;50.50;96708.27;1687694;84;21448;-75
2022/01/25 11:54:04;;;;;;;8.07;4.40;;;;;;;-2.49;50.34;96699.87;1711431;84;21085;-75
2022/01/25 11:56:32;;;;;;;6.90;4.73;;;;;;;-2.34;49.97;96702.70;1711424;84;20997;-75
2022/01/25 11:59:00;;;;;;;12.20;5.17;;;;;;;-2.29;50.23;96700.84;1711228;84;21092;-75
2022/01/25 12:01:28;;;;;;;7.70;4.17;;;;;;;-2.14;50.24;96699.41;1711487;84;21002;-75
2022/01/25 12:04:03;;;;;;;8.20;4.30;;;;;;;-2.19;49.51;96697.00;1711490;84;21025;-75
2022/01/25 12:06:43;;;;;;;10.87;4.90;;;;;;;-2.11;50.33;96694.38;1710411;84;21025;-75
2022/01/25 12:09:52;;;;;;;6.67;3.80;;;;;;;-1.98;50.51;96698.01;1711335;84;21108;-75
2022/01/25 12:12:07;;;;;;;9.30;5.33;;;;;;;-2.05;49.46;96692.47;1701235;84;21022;-75
2022/01/25 12:14:52;;;;;;;7.67;4.83;;;;;;;-1.91;50.44;96688.84;1709980;84;21109;-75
2022/01/25 12:17:25;;;;;;;10.38;5.20;;;;;;;-1.98;50.07;96694.55;1711711;84;20990;-75
2022/01/25 12:19:58;;;;;;;9.08;4.47;;;;;;;-2.05;51.28;96700.23;1711597;84;21048;-74
2022/01/25 12:22:38;;;;;;;9.10;4.85;;;;;;;-2.17;51.18;96690.18;1711548;84;21164;-74
2022/01/25 12:25:28;;;;;;;7.67;4.40;;;;;;;-2.44;51.26;96689.77;1711152;84;21534;-74
2022/01/25 12:27:59;;;;;;;8.00;4.60;;;;;;;-2.37;51.98;96692.22;1711153;84;20998;-74
2022/01/25 12:30:42;;;;;;;9.67;5.40;;;;;;;-2.44;51.99;96691.94;1711499;84;21459;-74
2022/01/25 12:33:17;;;;;;;11.88;5.75;;;;;;;-2.38;52.46;96695.22;1711441;84;21093;-74
2022/01/25 12:35:49;;;;;;;11.33;5.50;;;;;;;-2.49;52.51;96697.28;1711462;84;21048;-75
2022/01/25 12:38:43;;;;;;;29.77;13.63;;;;;;;-2.42;52.89;96690.70;1711442;84;20994;-74
2022/01/25 12:41:15;;;;;;;9.23;5.28;;;;;;;-2.48;53.01;96690.00;1711599;84;21520;-75
2022/01/25 12:43:51;;;;;;;10.40;6.00;;;;;;;-2.50;53.49;96686.86;1711632;84;21073;-75
2022/01/25 12:46:20;;;;;;;12.13;6.10;;;;;;;-2.52;53.58;96700.10;1711574;84;21102;-76
2022/01/25 12:48:55;;;;;;;11.30;7.10;;;;;;;-2.42;53.81;96691.61;1700907;84;21065;-74
2022/01/25 12:51:25;;;;;;;7.43;4.53;;;;;;;-2.36;54.32;96694.02;1696272;85;21042;-75
2022/01/25 12:53:55;;;;;;;9.37;5.10;;;;;;;-2.28;53.92;96696.14;1696215;84;21046;-74
2022/01/25 12:56:26;;;;;;;10.07;4.57;;;;;;;-2.31;54.22;96693.41;1696244;84;20994;-74
2022/01/25 12:58:58;;;;;;;9.37;5.13;;;;;;;-2.28;54.30;96696.55;1696175;84;21006;-74
2022/01/25 13:01:27;;;;;;;9.97;5.07;;;;;;;-2.23;54.21;96693.78;1696436;84;21029;-74
2022/01/25 13:03:59;;;;;;;9.93;5.83;;;;;;;-2.30;54.53;96690.41;1696389;84;21479;-74
2022/01/25 13:06:32;;;;;;;12.40;5.47;;;;;;;-2.49;54.82;96690.83;1695103;85;21097;-74
2022/01/25 13:09:13;;;;;;;9.17;5.57;;;;;;;-2.44;54.66;96687.17;1696097;85;21500;-75
2022/01/25 13:17:17;;;;;;;9.83;5.23;;;;;;;-2.48;54.73;96683.95;1696249;84;21038;-74
2022/01/25 13:20:02;;;;;;;9.07;5.13;;;;;;;-2.48;55.42;96680.95;1696537;84;21025;-75